sensor_id;sensor_type;location;lat;lon;timestamp;pressure;altitude;pressure_sealevel;temperature;humidity
31595;BME280;18200;48.726;8.892;2023-07-13T00:01:16;96761.88;;;35.37;25.47
31595;BME280;18200;48.726;8.892;2023-07-13T00:05:17;96781.34;;;35.13;24.86
31595;BME280;18200;48.726;8.892;2023-07-13T00:09:18;96774.06;;;35.34;25.53
31595;BME280;18200;48.726;8.892;2023-07-13T00:13:18;96770.38;;;33.94;26.67
31595;BME280;18200;48.726;8.892;2023-07-13T00:17:19;96765.03;;;31.84;28.47
31595;BME280;18200;48.726;8.892;2023-07-13T00:21:19;96756.47;;;31.88;28.53
31595;BME280;18200;48.726;8.892;2023-07-13T00:25:21;96752.94;;;31.87;28.33
31595;BME280;18200;48.726;8.892;2023-07-13T00:29:21;96747.00;;;32.70;27.26
31595;BME280;18200;48.726;8.892;2023-07-13T00:33:22;96738.53;;;31.21;29.48
31595;BME280;18200;48.726;8.892;2023-07-13T00:37:23;96739.34;;;30.76;30.20
31595;BME280;18200;48.726;8.892;2023-07-13T00:41:23;96742.06;;;31.21;30.20
31595;BME280;18200;48.726;8.892;2023-07-13T00:49:26;96742.63;;;31.00;29.71
31595;BME280;18200;48.726;8.892;2023-07-13T00:53:29;96736.09;;;32.61;27.57
31595;BME280;18200;48.726;8.892;2023-07-13T00:57:31;96741.78;;;32.24;27.37
31595;BME280;18200;48.726;8.892;2023-07-13T01:01:32;96741.56;;;32.39;27.86
31595;BME280;18200;48.726;8.892;2023-07-13T01:05:34;96755.94;;;33.85;25.92
31595;BME280;18200;48.726;8.892;2023-07-13T01:09:34;96765.56;;;34.00;25.63
31595;BME280;18200;48.726;8.892;2023-07-13T01:13:35;96767.09;;;33.07;26.22
31595;BME280;18200;48.726;8.892;2023-07-13T01:17:35;96762.53;;;33.37;25.85
31595;BME280;18200;48.726;8.892;2023-07-13T01:21:35;96756.69;;;31.84;27.81
31595;BME280;18200;48.726;8.892;2023-07-13T01:25:42;96750.19;;;31.56;28.14
31595;BME280;18200;48.726;8.892;2023-07-13T01:29:44;96754.19;;;33.04;26.08
31595;BME280;18200;48.726;8.892;2023-07-13T01:33:46;96749.75;;;32.05;27.15
31595;BME280;18200;48.726;8.892;2023-07-13T01:37:47;96741.53;;;31.43;27.90
31595;BME280;18200;48.726;8.892;2023-07-13T01:41:49;96742.94;;;32.06;27.15
31595;BME280;18200;48.726;8.892;2023-07-13T01:45:50;96748.69;;;31.55;27.37
31595;BME280;18200;48.726;8.892;2023-07-13T01:49:51;96745.38;;;31.93;26.66
31595;BME280;18200;48.726;8.892;2023-07-13T01:53:52;96753.09;;;32.90;25.53
31595;BME280;18200;48.726;8.892;2023-07-13T01:57:52;96760.00;;;33.12;25.07
31595;BME280;18200;48.726;8.892;2023-07-13T02:01:52;96767.34;;;33.48;25.11
31595;BME280;18200;48.726;8.892;2023-07-13T02:05:54;96765.81;;;34.02;23.92
31595;BME280;18200;48.726;8.892;2023-07-13T02:09:54;96768.72;;;34.43;23.51
31595;BME280;18200;48.726;8.892;2023-07-13T02:13:54;96769.63;;;33.83;24.15
31595;BME280;18200;48.726;8.892;2023-07-13T02:17:55;96771.13;;;33.95;25.81
31595;BME280;18200;48.726;8.892;2023-07-13T02:21:57;96772.34;;;34.21;24.75
31595;BME280;18200;48.726;8.892;2023-07-13T02:25:59;96777.94;;;34.21;25.02
31595;BME280;18200;48.726;8.892;2023-07-13T02:29:59;96773.44;;;33.74;25.76
31595;BME280;18200;48.726;8.892;2023-07-13T02:34:00;96785.63;;;33.71;25.68
31595;BME280;18200;48.726;8.892;2023-07-13T02:38:00;96781.78;;;33.13;26.79
31595;BME280;18200;48.726;8.892;2023-07-13T02:42:00;96788.34;;;33.10;26.74
31595;BME280;18200;48.726;8.892;2023-07-13T02:46:01;96791.09;;;32.94;27.66
31595;BME280;18200;48.726;8.892;2023-07-13T02:50:08;96793.91;;;32.99;27.70
31595;BME280;18200;48.726;8.892;2023-07-13T02:54:09;96783.97;;;32.23;28.58
31595;BME280;18200;48.726;8.892;2023-07-13T02:58:09;96789.97;;;32.58;28.66
31595;BME280;18200;48.726;8.892;2023-07-13T03:02:09;96787.75;;;32.20;28.58
31595;BME280;18200;48.726;8.892;2023-07-13T03:06:11;96790.31;;;31.86;29.10
31595;BME280;18200;48.726;8.892;2023-07-13T03:10:20;96790.25;;;31.75;29.63
31595;BME280;18200;48.726;8.892;2023-07-13T03:14:23;96789.44;;;32.00;29.13
31595;BME280;18200;48.726;8.892;2023-07-13T03:18:26;96789.16;;;31.98;29.60
31595;BME280;18200;48.726;8.892;2023-07-13T03:22:27;96789.16;;;31.98;28.80
31595;BME280;18200;48.726;8.892;2023-07-13T03:26:28;96797.66;;;32.32;27.97
31595;BME280;18200;48.726;8.892;2023-07-13T03:30:30;96804.22;;;32.29;28.39
31595;BME280;18200;48.726;8.892;2023-07-13T03:34:32;96815.09;;;31.90;29.71
31595;BME280;18200;48.726;8.892;2023-07-13T03:38:33;96818.22;;;31.97;28.96
31595;BME280;18200;48.726;8.892;2023-07-13T03:42:36;96828.53;;;32.92;27.49
31595;BME280;18200;48.726;8.892;2023-07-13T03:46:36;96836.50;;;32.52;27.68
31595;BME280;18200;48.726;8.892;2023-07-13T03:50:38;96834.00;;;32.59;29.62
31595;BME280;18200;48.726;8.892;2023-07-13T03:54:38;96830.66;;;33.09;27.64
31595;BME280;18200;48.726;8.892;2023-07-13T03:58:40;96839.34;;;31.89;29.19
31595;BME280;18200;48.726;8.892;2023-07-13T04:02:53;96834.94;;;33.04;27.78
31595;BME280;18200;48.726;8.892;2023-07-13T04:06:53;96835.03;;;33.71;26.80
31595;BME280;18200;48.726;8.892;2023-07-13T04:10:54;96848.66;;;33.24;28.26
31595;BME280;18200;48.726;8.892;2023-07-13T04:14:54;96849.66;;;33.27;28.08
31595;BME280;18200;48.726;8.892;2023-07-13T04:18:55;96842.09;;;33.38;27.42
31595;BME280;18200;48.726;8.892;2023-07-13T04:22:59;96851.91;;;33.06;27.59
31595;BME280;18200;48.726;8.892;2023-07-13T04:27:00;96853.72;;;32.61;28.03
31595;BME280;18200;48.726;8.892;2023-07-13T04:31:02;96846.63;;;32.12;29.86
31595;BME280;18200;48.726;8.892;2023-07-13T04:35:02;96856.53;;;31.88;29.87
31595;BME280;18200;48.726;8.892;2023-07-13T04:39:03;96848.44;;;32.27;29.32
31595;BME280;18200;48.726;8.892;2023-07-13T04:43:03;96843.13;;;32.18;29.72
31595;BME280;18200;48.726;8.892;2023-07-13T04:47:04;96863.41;;;30.90;31.54
31595;BME280;18200;48.726;8.892;2023-07-13T04:51:04;96854.16;;;32.06;29.74
31595;BME280;18200;48.726;8.892;2023-07-13T04:55:05;96859.78;;;30.63;32.12
31595;BME280;18200;48.726;8.892;2023-07-13T04:59:05;96864.16;;;31.62;30.39
31595;BME280;18200;48.726;8.892;2023-07-13T05:03:06;96866.63;;;31.85;30.10
31595;BME280;18200;48.726;8.892;2023-07-13T05:07:06;96874.25;;;31.65;30.61
31595;BME280;18200;48.726;8.892;2023-07-13T05:11:06;96870.09;;;32.11;30.02
31595;BME280;18200;48.726;8.892;2023-07-13T05:15:07;96875.22;;;31.87;29.48
31595;BME280;18200;48.726;8.892;2023-07-13T05:19:08;96866.63;;;31.85;30.53
31595;BME280;18200;48.726;8.892;2023-07-13T05:23:08;96868.06;;;31.75;30.71
31595;BME280;18200;48.726;8.892;2023-07-13T05:27:09;96889.06;;;31.05;31.52
31595;BME280;18200;48.726;8.892;2023-07-13T05:31:09;96884.25;;;31.05;31.36
31595;BME280;18200;48.726;8.892;2023-07-13T05:35:10;96881.38;;;31.40;30.55
31595;BME280;18200;48.726;8.892;2023-07-13T05:39:10;96877.28;;;31.61;30.86
31595;BME280;18200;48.726;8.892;2023-07-13T05:43:12;96879.19;;;31.50;30.61
31595;BME280;18200;48.726;8.892;2023-07-13T05:47:12;96869.66;;;32.19;30.03
31595;BME280;18200;48.726;8.892;2023-07-13T05:51:15;96894.41;;;31.85;30.36
31595;BME280;18200;48.726;8.892;2023-07-13T05:55:15;96894.03;;;31.98;30.52
31595;BME280;18200;48.726;8.892;2023-07-13T05:59:15;96895.94;;;31.61;30.83
31595;BME280;18200;48.726;8.892;2023-07-13T06:03:17;96899.38;;;32.38;29.33
31595;BME280;18200;48.726;8.892;2023-07-13T06:07:17;96910.22;;;31.48;30.30
31595;BME280;18200;48.726;8.892;2023-07-13T06:11:21;96907.66;;;32.69;29.26
31595;BME280;18200;48.726;8.892;2023-07-13T06:15:22;96923.63;;;32.80;29.09
31595;BME280;18200;48.726;8.892;2023-07-13T06:19:22;96916.63;;;32.90;29.64
31595;BME280;18200;48.726;8.892;2023-07-13T06:23:23;96923.69;;;32.91;28.86
31595;BME280;18200;48.726;8.892;2023-07-13T06:27:24;96929.34;;;34.11;27.80
31595;BME280;18200;48.726;8.892;2023-07-13T06:31:24;96927.31;;;34.39;27.37
31595;BME280;18200;48.726;8.892;2023-07-13T06:35:25;96932.84;;;34.67;26.31
31595;BME280;18200;48.726;8.892;2023-07-13T06:39:25;96929.84;;;34.37;25.20
31595;BME280;18200;48.726;8.892;2023-07-13T06:43:25;96930.84;;;34.12;25.33
31595;BME280;18200;48.726;8.892;2023-07-13T06:47:26;96937.91;;;34.68;24.64
31595;BME280;18200;48.726;8.892;2023-07-13T06:51:26;96935.16;;;34.18;24.04
31595;BME280;18200;48.726;8.892;2023-07-13T06:55:27;96940.56;;;32.71;26.61
31595;BME280;18200;48.726;8.892;2023-07-13T06:59:27;96941.00;;;34.37;24.71
31595;BME280;18200;48.726;8.892;2023-07-13T07:03:28;96941.31;;;35.19;24.25
31595;BME280;18200;48.726;8.892;2023-07-13T07:07:28;96953.69;;;34.27;24.38
31595;BME280;18200;48.726;8.892;2023-07-13T07:11:28;96946.59;;;34.26;23.31
31595;BME280;18200;48.726;8.892;2023-07-13T07:15:29;96951.41;;;34.36;23.14
31595;BME280;18200;48.726;8.892;2023-07-13T07:19:30;96948.09;;;34.49;23.36
31595;BME280;18200;48.726;8.892;2023-07-13T07:23:30;96951.44;;;33.22;24.11
31595;BME280;18200;48.726;8.892;2023-07-13T07:27:32;96949.97;;;33.32;23.71
31595;BME280;18200;48.726;8.892;2023-07-13T07:31:32;96942.50;;;34.38;22.31
31595;BME280;18200;48.726;8.892;2023-07-13T07:35:32;96930.47;;;33.32;23.37
31595;BME280;18200;48.726;8.892;2023-07-13T07:39:33;96929.31;;;33.67;23.23
31595;BME280;18200;48.726;8.892;2023-07-13T07:43:33;96938.19;;;33.98;22.43
31595;BME280;18200;48.726;8.892;2023-07-13T07:47:34;96936.66;;;34.64;21.72
31595;BME280;18200;48.726;8.892;2023-07-13T07:51:34;96940.47;;;33.02;23.29
31595;BME280;18200;48.726;8.892;2023-07-13T07:55:35;96940.72;;;34.57;21.28
31595;BME280;18200;48.726;8.892;2023-07-13T07:59:36;96943.41;;;35.01;20.56
31595;BME280;18200;48.726;8.892;2023-07-13T08:03:37;96947.06;;;33.86;21.98
31595;BME280;18200;48.726;8.892;2023-07-13T08:07:38;96948.03;;;33.72;22.45
31595;BME280;18200;48.726;8.892;2023-07-13T08:11:38;96942.72;;;33.68;22.90
31595;BME280;18200;48.726;8.892;2023-07-13T08:15:39;96948.81;;;35.46;20.62
31595;BME280;18200;48.726;8.892;2023-07-13T08:19:40;96947.56;;;34.67;21.76
31595;BME280;18200;48.726;8.892;2023-07-13T08:23:40;96948.03;;;33.72;22.17
31595;BME280;18200;48.726;8.892;2023-07-13T08:27:41;96950.06;;;35.50;21.15
31595;BME280;18200;48.726;8.892;2023-07-13T08:31:41;96950.66;;;34.03;22.25
31595;BME280;18200;48.726;8.892;2023-07-13T08:35:41;96938.94;;;34.60;21.83
31595;BME280;18200;48.726;8.892;2023-07-13T08:39:42;96948.84;;;33.78;22.82
31595;BME280;18200;48.726;8.892;2023-07-13T08:43:46;96948.31;;;35.88;20.25
31595;BME280;18200;48.726;8.892;2023-07-13T08:47:54;96937.69;;;34.44;23.28
31595;BME280;18200;48.726;8.892;2023-07-13T08:52:04;96943.41;;;33.46;23.44
31595;BME280;18200;48.726;8.892;2023-07-13T08:56:25;96949.13;;;34.35;22.30
31595;BME280;18200;48.726;8.892;2023-07-13T09:00:43;96950.88;;;33.88;22.63
31595;BME280;18200;48.726;8.892;2023-07-13T09:04:53;96947.09;;;35.32;21.25
31595;BME280;18200;48.726;8.892;2023-07-13T09:09:01;96958.44;;;34.76;21.74
31595;BME280;18200;48.726;8.892;2023-07-13T09:17:41;96962.78;;;33.89;22.01
31595;BME280;18200;48.726;8.892;2023-07-13T09:21:46;96964.69;;;35.73;20.38
31595;BME280;18200;48.726;8.892;2023-07-13T09:25:49;96960.94;;;34.91;20.78
31595;BME280;18200;48.726;8.892;2023-07-13T09:30:45;96967.16;;;35.36;20.29
31595;BME280;18200;48.726;8.892;2023-07-13T09:34:19;96943.78;;;36.20;20.19
31595;BME280;18200;48.726;8.892;2023-07-13T09:38:21;96946.03;;;37.00;19.06
31595;BME280;18200;48.726;8.892;2023-07-13T09:42:23;96952.69;;;37.77;18.16
31595;BME280;18200;48.726;8.892;2023-07-13T09:46:25;96956.91;;;35.55;20.59
31595;BME280;18200;48.726;8.892;2023-07-13T09:50:25;96954.38;;;33.55;22.22
31595;BME280;18200;48.726;8.892;2023-07-13T09:54:25;96949.31;;;34.76;21.61
31595;BME280;18200;48.726;8.892;2023-07-13T09:58:29;96939.97;;;34.62;22.19
31595;BME280;18200;48.726;8.892;2023-07-13T10:02:34;96944.41;;;37.10;18.77
31595;BME280;18200;48.726;8.892;2023-07-13T10:06:35;96946.88;;;38.83;17.80
31595;BME280;18200;48.726;8.892;2023-07-13T10:10:35;96945.25;;;39.01;17.65
31595;BME280;18200;48.726;8.892;2023-07-13T10:14:36;96943.47;;;35.88;19.67
31595;BME280;18200;48.726;8.892;2023-07-13T10:18:49;96953.72;;;38.43;18.28
31595;BME280;18200;48.726;8.892;2023-07-13T10:22:55;96953.66;;;36.21;19.43
31595;BME280;18200;48.726;8.892;2023-07-13T10:31:06;96946.28;;;37.02;19.16
31595;BME280;18200;48.726;8.892;2023-07-13T10:35:14;96944.75;;;37.81;18.74
31595;BME280;18200;48.726;8.892;2023-07-13T10:39:20;96954.28;;;37.72;17.85
31595;BME280;18200;48.726;8.892;2023-07-13T10:43:43;96956.56;;;37.55;18.29
31595;BME280;18200;48.726;8.892;2023-07-13T10:47:45;96954.00;;;39.36;16.69
31595;BME280;18200;48.726;8.892;2023-07-13T10:51:45;96948.81;;;38.75;16.75
31595;BME280;18200;48.726;8.892;2023-07-13T11:04:04;96946.50;;;37.84;17.05
31595;BME280;18200;48.726;8.892;2023-07-13T11:08:33;96936.94;;;37.92;17.08
31595;BME280;18200;48.726;8.892;2023-07-13T11:12:52;96938.44;;;38.25;16.61
31595;BME280;18200;48.726;8.892;2023-07-13T11:16:53;96924.59;;;35.65;19.53
31595;BME280;18200;48.726;8.892;2023-07-13T11:21:19;96923.81;;;37.26;18.92
31595;BME280;18200;48.726;8.892;2023-07-13T11:25:26;96925.13;;;35.93;19.98
31595;BME280;18200;48.726;8.892;2023-07-13T11:29:36;96930.47;;;36.26;18.78
31595;BME280;18200;48.726;8.892;2023-07-13T11:37:40;96915.97;;;35.63;20.43
31595;BME280;18200;48.726;8.892;2023-07-13T11:41:49;96906.94;;;36.40;20.16
31595;BME280;18200;48.726;8.892;2023-07-13T11:45:51;96916.69;;;37.25;18.83
31595;BME280;18200;48.726;8.892;2023-07-13T11:49:54;96926.88;;;37.65;18.82
31595;BME280;18200;48.726;8.892;2023-07-13T11:53:58;96925.63;;;38.43;17.21
31595;BME280;18200;48.726;8.892;2023-07-13T11:58:01;96924.44;;;36.46;18.55
31595;BME280;18200;48.726;8.892;2023-07-13T12:02:16;96926.19;;;36.98;18.50
31595;BME280;18200;48.726;8.892;2023-07-13T12:06:32;96928.88;;;36.85;19.34
31595;BME280;18200;48.726;8.892;2023-07-13T12:10:33;96925.75;;;38.05;17.49
31595;BME280;18200;48.726;8.892;2023-07-13T12:14:34;96920.91;;;39.29;17.08
31595;BME280;18200;48.726;8.892;2023-07-13T12:18:34;96920.00;;;38.43;17.55
31595;BME280;18200;48.726;8.892;2023-07-13T12:22:35;96914.28;;;37.16;18.70
31595;BME280;18200;48.726;8.892;2023-07-13T12:26:35;96925.16;;;37.19;17.98
31595;BME280;18200;48.726;8.892;2023-07-13T12:30:37;96917.47;;;37.44;17.53
31595;BME280;18200;48.726;8.892;2023-07-13T12:34:54;96910.47;;;36.95;17.49
31595;BME280;18200;48.726;8.892;2023-07-13T12:39:12;96930.34;;;37.71;18.07
31595;BME280;18200;48.726;8.892;2023-07-13T12:43:14;96928.22;;;38.41;17.50
31595;BME280;18200;48.726;8.892;2023-07-13T12:47:15;96920.72;;;39.14;16.18
31595;BME280;18200;48.726;8.892;2023-07-13T12:51:16;96923.78;;;37.50;17.56
31595;BME280;18200;48.726;8.892;2023-07-13T12:55:18;96918.38;;;37.52;17.79
31595;BME280;18200;48.726;8.892;2023-07-13T12:59:20;96925.63;;;37.23;17.69
31595;BME280;18200;48.726;8.892;2023-07-13T13:03:26;96924.41;;;37.93;16.98
31595;BME280;18200;48.726;8.892;2023-07-13T13:07:28;96921.56;;;37.43;17.86
31595;BME280;18200;48.726;8.892;2023-07-13T13:11:31;96928.41;;;36.81;18.23
31595;BME280;18200;48.726;8.892;2023-07-13T13:15:32;96912.13;;;37.78;17.08
31595;BME280;18200;48.726;8.892;2023-07-13T13:19:33;96921.56;;;38.70;16.60
31595;BME280;18200;48.726;8.892;2023-07-13T13:23:33;96915.63;;;38.60;17.03
31595;BME280;18200;48.726;8.892;2023-07-13T13:27:33;96927.44;;;37.95;17.32
31595;BME280;18200;48.726;8.892;2023-07-13T13:31:34;96928.75;;;36.72;18.39
31595;BME280;18200;48.726;8.892;2023-07-13T13:35:34;96929.84;;;36.93;17.18
31595;BME280;18200;48.726;8.892;2023-07-13T13:39:36;96917.66;;;38.60;16.08
31595;BME280;18200;48.726;8.892;2023-07-13T13:43:37;96908.91;;;37.55;17.57
31595;BME280;18200;48.726;8.892;2023-07-13T13:47:37;96913.56;;;39.00;16.61
31595;BME280;18200;48.726;8.892;2023-07-13T13:51:38;96918.53;;;37.22;17.48
31595;BME280;18200;48.726;8.892;2023-07-13T13:55:38;96912.78;;;37.52;17.88
31595;BME280;18200;48.726;8.892;2023-07-13T13:59:39;96909.03;;;36.83;18.42
31595;BME280;18200;48.726;8.892;2023-07-13T14:03:42;96906.53;;;38.10;17.33
31595;BME280;18200;48.726;8.892;2023-07-13T14:07:43;96920.25;;;36.83;18.34
31595;BME280;18200;48.726;8.892;2023-07-13T14:11:45;96900.97;;;35.96;19.10
31595;BME280;18200;48.726;8.892;2023-07-13T14:15:46;96917.47;;;35.18;19.81
31595;BME280;18200;48.726;8.892;2023-07-13T14:19:47;96907.88;;;36.97;18.85
31595;BME280;18200;48.726;8.892;2023-07-13T14:23:50;96915.25;;;36.51;19.79
31595;BME280;18200;48.726;8.892;2023-07-13T14:27:57;96916.84;;;37.70;18.23
31595;BME280;18200;48.726;8.892;2023-07-13T14:31:59;96915.75;;;38.81;17.68
31595;BME280;18200;48.726;8.892;2023-07-13T14:35:59;96920.19;;;39.63;16.54
31595;BME280;18200;48.726;8.892;2023-07-13T14:39:59;96916.81;;;39.04;17.12
31595;BME280;18200;48.726;8.892;2023-07-13T14:44:00;96920.19;;;37.68;18.51
31595;BME280;18200;48.726;8.892;2023-07-13T14:48:01;96914.75;;;37.39;18.50
31595;BME280;18200;48.726;8.892;2023-07-13T14:52:22;96918.97;;;38.98;17.04
31595;BME280;18200;48.726;8.892;2023-07-13T14:56:25;96930.72;;;36.82;19.24
31595;BME280;18200;48.726;8.892;2023-07-13T15:00:25;96927.69;;;38.11;17.97
31595;BME280;18200;48.726;8.892;2023-07-13T15:04:25;96925.69;;;38.69;16.94
31595;BME280;18200;48.726;8.892;2023-07-13T15:08:26;96934.56;;;37.96;17.96
31595;BME280;18200;48.726;8.892;2023-07-13T15:12:26;96929.19;;;37.24;18.48
31595;BME280;18200;48.726;8.892;2023-07-13T15:16:26;96921.38;;;37.17;18.14
31595;BME280;18200;48.726;8.892;2023-07-13T15:20:34;96933.91;;;36.92;18.32
31595;BME280;18200;48.726;8.892;2023-07-13T15:24:38;96936.34;;;36.23;19.66
31595;BME280;18200;48.726;8.892;2023-07-13T15:28:40;96938.34;;;35.57;19.94
31595;BME280;18200;48.726;8.892;2023-07-13T15:32:45;96941.09;;;36.33;20.09
31595;BME280;18200;48.726;8.892;2023-07-13T15:36:46;96934.91;;;36.40;19.00
31595;BME280;18200;48.726;8.892;2023-07-13T15:40:47;96936.03;;;36.32;19.01
31595;BME280;18200;48.726;8.892;2023-07-13T15:44:48;96928.66;;;37.07;18.43
31595;BME280;18200;48.726;8.892;2023-07-13T15:48:50;96923.72;;;38.64;17.45
31595;BME280;18200;48.726;8.892;2023-07-13T15:52:55;96927.31;;;38.91;16.95
31595;BME280;18200;48.726;8.892;2023-07-13T15:57:01;96939.13;;;36.28;18.88
31595;BME280;18200;48.726;8.892;2023-07-13T16:01:02;96938.47;;;35.76;18.89
31595;BME280;18200;48.726;8.892;2023-07-13T16:05:02;96927.44;;;36.54;18.71
31595;BME280;18200;48.726;8.892;2023-07-13T16:09:03;96926.94;;;37.22;18.21
31595;BME280;18200;48.726;8.892;2023-07-13T16:13:08;96917.09;;;36.92;18.10
31595;BME280;18200;48.726;8.892;2023-07-13T16:17:11;96915.91;;;37.99;17.80
31595;BME280;18200;48.726;8.892;2023-07-13T16:21:15;96928.75;;;37.20;18.79
31595;BME280;18200;48.726;8.892;2023-07-13T16:25:20;96921.09;;;38.40;17.84
31595;BME280;18200;48.726;8.892;2023-07-13T16:29:24;96928.88;;;36.85;18.49
31595;BME280;18200;48.726;8.892;2023-07-13T16:33:25;96931.81;;;36.49;19.07
31595;BME280;18200;48.726;8.892;2023-07-13T16:37:28;96937.91;;;37.20;18.61
31595;BME280;18200;48.726;8.892;2023-07-13T16:41:29;96926.44;;;36.76;19.46
31595;BME280;18200;48.726;8.892;2023-07-13T16:45:31;96930.22;;;37.45;18.72
31595;BME280;18200;48.726;8.892;2023-07-13T16:49:36;96948.84;;;36.51;19.42
31595;BME280;18200;48.726;8.892;2023-07-13T16:53:37;96955.81;;;35.69;19.27
31595;BME280;18200;48.726;8.892;2023-07-13T16:57:43;96958.06;;;36.71;18.66
31595;BME280;18200;48.726;8.892;2023-07-13T17:01:44;96961.66;;;37.57;18.25
31595;BME280;18200;48.726;8.892;2023-07-13T17:05:47;96955.97;;;38.31;17.32
31595;BME280;18200;48.726;8.892;2023-07-13T17:09:51;96953.31;;;36.90;18.70
31595;BME280;18200;48.726;8.892;2023-07-13T17:13:52;96953.34;;;37.27;18.19
31595;BME280;18200;48.726;8.892;2023-07-13T17:17:52;96954.72;;;37.76;18.26
31595;BME280;18200;48.726;8.892;2023-07-13T17:22:10;96954.16;;;37.46;18.69
31595;BME280;18200;48.726;8.892;2023-07-13T17:26:18;96962.63;;;37.96;17.97
31595;BME280;18200;48.726;8.892;2023-07-13T17:30:21;96956.41;;;37.29;18.79
31595;BME280;18200;48.726;8.892;2023-07-13T17:34:23;96961.06;;;37.02;18.66
31595;BME280;18200;48.726;8.892;2023-07-13T17:38:31;96960.44;;;36.31;19.50
31595;BME280;18200;48.726;8.892;2023-07-13T17:42:34;96961.75;;;37.08;19.15
31595;BME280;18200;48.726;8.892;2023-07-13T17:46:34;96959.59;;;36.12;19.72
31595;BME280;18200;48.726;8.892;2023-07-13T17:50:35;96958.81;;;37.19;19.18
31595;BME280;18200;48.726;8.892;2023-07-13T17:54:36;96956.16;;;35.95;20.41
31595;BME280;18200;48.726;8.892;2023-07-13T17:58:37;96962.44;;;36.07;19.87
31595;BME280;18200;48.726;8.892;2023-07-13T18:02:37;96965.66;;;36.16;19.87
31595;BME280;18200;48.726;8.892;2023-07-13T18:06:40;96968.50;;;36.40;18.99
31595;BME280;18200;48.726;8.892;2023-07-13T18:10:42;96959.06;;;37.40;18.59
31595;BME280;18200;48.726;8.892;2023-07-13T18:14:42;96973.69;;;37.33;18.97
31595;BME280;18200;48.726;8.892;2023-07-13T18:18:43;96973.81;;;37.46;19.22
31595;BME280;18200;48.726;8.892;2023-07-13T18:22:43;96976.66;;;37.96;18.54
31595;BME280;18200;48.726;8.892;2023-07-13T18:26:44;96983.41;;;37.69;18.56
31595;BME280;18200;48.726;8.892;2023-07-13T18:30:54;96985.38;;;37.74;18.82
31595;BME280;18200;48.726;8.892;2023-07-13T18:34:58;96972.06;;;37.19;19.45
31595;BME280;18200;48.726;8.892;2023-07-13T18:38:58;96977.72;;;37.56;19.75
31595;BME280;18200;48.726;8.892;2023-07-13T18:42:59;96993.97;;;36.42;20.34
31595;BME280;18200;48.726;8.892;2023-07-13T18:46:59;96989.69;;;36.66;20.41
31595;BME280;18200;48.726;8.892;2023-07-13T18:50:59;96990.66;;;36.38;20.34
31595;BME280;18200;48.726;8.892;2023-07-13T18:55:00;96986.38;;;36.67;20.50
31595;BME280;18200;48.726;8.892;2023-07-13T18:59:01;96995.56;;;36.32;20.41
31595;BME280;18200;48.726;8.892;2023-07-13T19:03:02;96993.97;;;35.61;21.43
31595;BME280;18200;48.726;8.892;2023-07-13T19:07:06;96987.22;;;35.34;21.59
31595;BME280;18200;48.726;8.892;2023-07-13T19:11:12;96994.69;;;36.13;20.71
31595;BME280;18200;48.726;8.892;2023-07-13T19:15:19;96995.63;;;35.86;20.96
31595;BME280;18200;48.726;8.892;2023-07-13T19:19:20;97001.09;;;36.08;20.12
31595;BME280;18200;48.726;8.892;2023-07-13T19:27:28;97014.84;;;36.41;20.26
31595;BME280;18200;48.726;8.892;2023-07-13T19:31:32;97018.41;;;35.60;21.54
31595;BME280;18200;48.726;8.892;2023-07-13T19:35:34;97016.84;;;35.65;21.33
31595;BME280;18200;48.726;8.892;2023-07-13T19:39:37;97030.84;;;36.06;21.88
31595;BME280;18200;48.726;8.892;2023-07-13T19:43:39;97036.72;;;35.50;22.13
31595;BME280;18200;48.726;8.892;2023-07-13T19:47:40;97037.75;;;35.42;23.11
31595;BME280;18200;48.726;8.892;2023-07-13T19:51:40;97045.16;;;35.39;23.07
31595;BME280;18200;48.726;8.892;2023-07-13T19:55:41;97037.75;;;35.53;23.10
31595;BME280;18200;48.726;8.892;2023-07-13T19:59:41;97054.28;;;35.40;22.95
31595;BME280;18200;48.726;8.892;2023-07-13T20:03:42;97058.59;;;35.52;22.68
31595;BME280;18200;48.726;8.892;2023-07-13T20:07:50;97058.03;;;33.71;25.62
31595;BME280;18200;48.726;8.892;2023-07-13T20:11:52;97066.72;;;33.95;25.19
31595;BME280;18200;48.726;8.892;2023-07-13T20:15:53;97069.13;;;34.35;24.67
31595;BME280;18200;48.726;8.892;2023-07-13T20:19:53;97064.66;;;33.25;26.16
31595;BME280;18200;48.726;8.892;2023-07-13T20:23:53;97074.56;;;33.85;25.61
31595;BME280;18200;48.726;8.892;2023-07-13T20:27:55;97075.41;;;34.08;25.48
31595;BME280;18200;48.726;8.892;2023-07-13T20:31:57;97072.66;;;34.24;25.08
31595;BME280;18200;48.726;8.892;2023-07-13T20:36:03;97068.22;;;33.85;25.27
31595;BME280;18200;48.726;8.892;2023-07-13T20:40:12;97072.56;;;33.97;23.94
31595;BME280;18200;48.726;8.892;2023-07-13T20:44:13;97076.34;;;33.94;24.29
31595;BME280;18200;48.726;8.892;2023-07-13T20:48:22;97080.66;;;33.30;25.67
31595;BME280;18200;48.726;8.892;2023-07-13T20:52:25;97077.78;;;33.61;24.87
31595;BME280;18200;48.726;8.892;2023-07-13T20:56:27;97084.03;;;34.10;24.86
31595;BME280;18200;48.726;8.892;2023-07-13T21:00:29;97077.47;;;34.24;24.42
31595;BME280;18200;48.726;8.892;2023-07-13T21:04:30;97072.56;;;33.32;26.59
31595;BME280;18200;48.726;8.892;2023-07-13T21:08:30;97083.16;;;33.28;26.41
31595;BME280;18200;48.726;8.892;2023-07-13T21:12:30;97080.28;;;33.59;25.74
31595;BME280;18200;48.726;8.892;2023-07-13T21:16:31;97080.13;;;33.26;25.93
31595;BME280;18200;48.726;8.892;2023-07-13T21:20:40;97082.38;;;33.76;25.03
31595;BME280;18200;48.726;8.892;2023-07-13T21:24:42;97088.72;;;32.92;26.52
31595;BME280;18200;48.726;8.892;2023-07-13T21:28:44;97091.66;;;33.08;26.46
31595;BME280;18200;48.726;8.892;2023-07-13T21:32:48;97095.56;;;33.27;25.71
31595;BME280;18200;48.726;8.892;2023-07-13T21:36:49;97092.69;;;33.16;25.93
31595;BME280;18200;48.726;8.892;2023-07-13T21:41:03;97088.72;;;32.92;26.52
31595;BME280;18200;48.726;8.892;2023-07-13T21:45:17;97096.75;;;33.15;27.00
31595;BME280;18200;48.726;8.892;2023-07-13T21:49:19;97111.03;;;32.60;27.87
31595;BME280;18200;48.726;8.892;2023-07-13T21:53:30;97102.97;;;32.68;27.00